Hlavní strana
METAR-TAF:

METAR-TAF

Letiště :

Džerba, Tunisko

zeměpisná šířka: 33-52N, zeměpisná délka: 010-46E, výška: 3 m

Aktuální stav počasí

Zpráva byla vytvořena před 47 minutami, v 04:00 UTC
Jižní vítr 5 kt
Teplota 9°C
Vlhkost vzduchu 93%
Tlak 1022 hPa
Viditelnost: 2000 m
kouřmo

METAR: DTTJ 250400Z 19005KT 2000 BR NSC 09/08 Q1022 NOSIG

Čas: 05:47 (04:47 UTC)

Předpověď počasí

Zpráva byla vytvořena před 5 hodinami a 47 minutami, v 23:00 UTC
Předpověď platná od 25 v 00 UTC do 25 v 24 UTC
Jihozápadní vítr 3 kt
Viditelnost: 5000 m
Skoro jasno ve výšce 2000 ft
Pravděpodobnost 40% :
Dočasný
od 25 v 00 UTC do 25 v 08 UTC
Viditelnost: 2000 m
kouřmo
Pravděpodobnost 30% :
Dočasný
od 25 v 06 UTC do 25 v 08 UTC
Viditelnost: 0500 m
mlha
Pravděpodobnost 30% :
Dočasný
od 25 v 20 UTC do 25 v 24 UTC
Viditelnost: 4000 m
kouřmo

TAF: DTTJ 242300Z 2500/2524 23003KT 5000 FEW020 PROB40 TEMPO 2500/2508 2000 BR PROB30 TEMPO 2506/2508 0500 FG PROB30 TEMPO 2520/2524 4000 BR

Stav a předpovědi počasí z více než 4 000 letišť (zprávy METAR a TAF).

Červené a žluté tečky na mapě představují dostupné meteorologické stanice.

Když kurzor umístíte na tečku, zobrazí se název stanice.

Pak kliknutím zobrazíte stav a předpověď počasí.

Chcete-li změnit mapu, kliknutím na zelené tlačítko se znaménkem +mapu přiblížíte, kliknutím na zelené tlačítko se znaménkem – mapu oddálíte a kliknutím na zelené šipky přejdete na sousední mapy.


METAR-TAF: